createdAt,value
2018-09-16T00:00:42.144Z,0
2018-09-16T00:01:51.442Z,0
2018-09-16T00:03:01.277Z,0
2018-09-16T00:04:10.580Z,0
2018-09-16T00:05:20.694Z,0
2018-09-16T00:06:30.263Z,0
2018-09-16T00:07:40.107Z,0
2018-09-16T00:08:49.676Z,0
2018-09-16T00:09:58.972Z,0
2018-09-16T00:11:08.553Z,0
2018-09-16T00:12:24.387Z,0
2018-09-16T00:13:33.957Z,0
2018-09-16T00:14:43.700Z,0
2018-09-16T00:15:53.340Z,0
2018-09-16T00:17:03.655Z,0
2018-09-16T00:18:13.507Z,0
2018-09-16T00:19:22.810Z,0
2018-09-16T00:20:32.652Z,0
2018-09-16T00:21:42.489Z,0
2018-09-16T00:22:52.066Z,0
2018-09-16T00:24:01.632Z,0
2018-09-16T00:25:11.204Z,0
2018-09-16T00:26:21.053Z,0
2018-09-16T00:27:30.618Z,0
2018-09-16T00:28:40.186Z,0
2018-09-16T00:29:49.481Z,0
2018-09-16T00:30:59.052Z,0
2018-09-16T00:32:09.212Z,0
2018-09-16T00:33:19.321Z,0
2018-09-16T00:34:29.163Z,0
2018-09-16T00:35:38.726Z,0
2018-09-16T00:36:48.056Z,0
2018-09-16T00:37:57.895Z,0
2018-09-16T00:39:07.195Z,0
2018-09-16T00:40:17.304Z,0
2018-09-16T00:41:27.345Z,0
2018-09-16T00:42:36.650Z,0
2018-09-16T00:43:46.992Z,0
2018-09-16T00:44:56.829Z,0
2018-09-16T00:46:06.681Z,0
2018-09-16T00:47:16.795Z,0
2018-09-16T00:48:26.650Z,0
2018-09-16T00:49:35.960Z,0
2018-09-16T00:50:46.071Z,0
2018-09-16T00:51:55.638Z,0
2018-09-16T00:53:05.743Z,0
2018-09-16T00:54:15.850Z,0
2018-09-16T00:55:25.686Z,0
2018-09-16T00:56:35.528Z,0
2018-09-16T00:57:45.109Z,0
2018-09-16T00:58:55.221Z,0
2018-09-16T01:00:04.519Z,0
2018-09-16T01:01:14.631Z,0
2018-09-16T01:02:24.472Z,0
2018-09-16T01:03:34.039Z,0
2018-09-16T01:04:43.603Z,0
2018-09-16T01:05:53.443Z,0
2018-09-16T01:07:03.306Z,0
2018-09-16T01:08:13.414Z,0
2018-09-16T01:09:23.253Z,0
2018-09-16T01:10:33.092Z,0
2018-09-16T01:11:42.389Z,0
2018-09-16T01:12:52.502Z,0
2018-09-16T01:14:02.609Z,0
2018-09-16T01:15:12.177Z,0
2018-09-16T01:16:21.471Z,0
2018-09-16T01:17:31.046Z,0
2018-09-16T01:18:41.153Z,0
2018-09-16T01:19:51.260Z,0
2018-09-16T01:21:00.836Z,0
2018-09-16T01:22:10.949Z,0
2018-09-16T01:23:20.788Z,0
2018-09-16T01:24:30.906Z,0
2018-09-16T01:25:40.709Z,0
2018-09-16T01:26:50.015Z,0
2018-09-16T01:27:59.852Z,0
2018-09-16T01:29:09.964Z,0
2018-09-16T01:30:19.263Z,0
2018-09-16T01:31:28.560Z,0
2018-09-16T01:32:38.399Z,0
2018-09-16T01:33:48.239Z,0
2018-09-16T01:34:58.078Z,0
2018-09-16T01:36:07.676Z,0
2018-09-16T01:37:17.245Z,0
2018-09-16T01:38:27.095Z,0
2018-09-16T01:39:36.699Z,0
2018-09-16T01:40:46.274Z,0
2018-09-16T01:41:55.637Z,0
2018-09-16T01:43:05.755Z,0
2018-09-16T01:44:15.887Z,0
2018-09-16T01:45:25.722Z,0
2018-09-16T01:46:35.858Z,0
2018-09-16T01:47:46.024Z,0
2018-09-16T01:48:55.898Z,0
2018-09-16T01:50:06.018Z,0
2018-09-16T01:51:16.131Z,0
2018-09-16T01:52:26.236Z,0
2018-09-16T01:53:36.107Z,0
2018-09-16T01:54:46.251Z,0
2018-09-16T01:55:56.356Z,0
2018-09-16T01:57:06.226Z,0
2018-09-16T01:58:16.394Z,0
2018-09-16T01:59:26.235Z,0
2018-09-16T02:00:36.083Z,0
2018-09-16T02:01:46.220Z,0
2018-09-16T02:02:55.802Z,0
2018-09-16T02:04:05.371Z,0
2018-09-16T02:05:14.986Z,0
2018-09-16T02:06:25.093Z,0
2018-09-16T02:07:35.202Z,0
2018-09-16T02:08:44.824Z,0
2018-09-16T02:09:54.658Z,0
2018-09-16T02:11:04.225Z,0
2018-09-16T02:12:13.794Z,0
2018-09-16T02:13:23.641Z,0
2018-09-16T02:14:33.212Z,0
2018-09-16T02:15:43.082Z,0
2018-09-16T02:16:52.651Z,0
2018-09-16T02:18:02.223Z,0
2018-09-16T02:19:11.517Z,0
2018-09-16T02:20:21.086Z,0
2018-09-16T02:21:31.219Z,0
2018-09-16T02:22:40.251Z,0
2018-09-16T02:23:50.094Z,0
2018-09-16T02:25:00.202Z,0
2018-09-16T02:26:09.761Z,0
2018-09-16T02:27:19.600Z,0
2018-09-16T02:28:29.203Z,0
2018-09-16T02:29:39.332Z,0
2018-09-16T02:30:49.173Z,0
2018-09-16T02:31:58.750Z,0
2018-09-16T02:33:08.063Z,0
2018-09-16T02:34:17.904Z,0
2018-09-16T02:35:27.203Z,0
2018-09-16T02:36:37.045Z,0
2018-09-16T02:37:46.885Z,0
2018-09-16T02:38:56.716Z,0
2018-09-16T02:40:06.560Z,0
2018-09-16T02:41:16.407Z,0
2018-09-16T02:42:26.511Z,0
2018-09-16T02:43:37.120Z,0
2018-09-16T02:44:46.963Z,0
2018-09-16T02:45:56.547Z,0
2018-09-16T02:47:05.855Z,0
2018-09-16T02:48:15.693Z,0
2018-09-16T02:49:25.540Z,0
2018-09-16T02:50:35.114Z,0
2018-09-16T02:51:44.961Z,0
2018-09-16T02:52:55.084Z,0
2018-09-16T02:54:04.934Z,0
2018-09-16T02:55:14.782Z,0
2018-09-16T02:56:24.640Z,0
2018-09-16T02:57:34.762Z,0
2018-09-16T02:58:44.611Z,0
2018-09-16T02:59:54.176Z,0
2018-09-16T03:01:04.013Z,0
2018-09-16T03:02:14.196Z,0
2018-09-16T03:03:24.090Z,0
2018-09-16T03:04:33.944Z,0
2018-09-16T03:05:43.261Z,0
2018-09-16T03:06:53.117Z,0
2018-09-16T03:08:03.242Z,0
2018-09-16T03:09:13.096Z,0
2018-09-16T03:10:22.680Z,0
2018-09-16T03:11:33.155Z,0
2018-09-16T03:12:43.026Z,0
2018-09-16T03:13:52.590Z,0
2018-09-16T03:15:02.164Z,0
2018-09-16T03:16:12.286Z,0
2018-09-16T03:17:21.861Z,0
2018-09-16T03:18:31.698Z,0
2018-09-16T03:19:41.269Z,0
2018-09-16T03:20:51.383Z,0
2018-09-16T03:22:01.227Z,0
2018-09-16T03:23:10.801Z,0
2018-09-16T03:24:20.910Z,0
2018-09-16T03:25:30.483Z,0
2018-09-16T03:26:40.048Z,0
2018-09-16T03:27:49.897Z,0
2018-09-16T03:28:59.465Z,0
2018-09-16T03:30:09.040Z,0
2018-09-16T03:31:19.157Z,0
2018-09-16T03:32:29.048Z,0
2018-09-16T03:33:38.894Z,0
2018-09-16T03:34:48.464Z,0
2018-09-16T03:35:58.031Z,0
2018-09-16T03:37:08.136Z,0
2018-09-16T03:38:17.753Z,0
2018-09-16T03:39:27.060Z,0
2018-09-16T03:40:36.902Z,0
2018-09-16T03:41:47.017Z,0
2018-09-16T03:42:56.855Z,0
2018-09-16T03:44:06.740Z,0
2018-09-16T03:45:16.576Z,0
2018-09-16T03:46:26.138Z,0
2018-09-16T03:47:36.253Z,0
2018-09-16T03:48:45.831Z,0
2018-09-16T03:49:55.705Z,0
2018-09-16T03:51:05.985Z,0
2018-09-16T03:52:15.564Z,0
2018-09-16T03:53:25.712Z,0
2018-09-16T03:54:35.014Z,0
2018-09-16T03:55:44.860Z,0
2018-09-16T03:56:54.985Z,0
2018-09-16T03:58:04.558Z,0
2018-09-16T03:59:14.665Z,0
2018-09-16T04:00:24.244Z,0
2018-09-16T04:01:33.828Z,0
2018-09-16T04:02:43.135Z,0
2018-09-16T04:03:52.709Z,0
2018-09-16T04:05:02.282Z,0
2018-09-16T04:06:11.586Z,0
2018-09-16T04:07:20.887Z,0
2018-09-16T04:08:30.491Z,0
2018-09-16T04:09:40.335Z,0
2018-09-16T04:10:49.633Z,0
2018-09-16T04:11:59.222Z,0
2018-09-16T04:13:09.061Z,0
2018-09-16T04:14:19.146Z,0
2018-09-16T04:15:29.190Z,0
2018-09-16T04:16:38.762Z,0
2018-09-16T04:17:48.902Z,0
2018-09-16T04:18:58.743Z,0
2018-09-16T04:20:08.315Z,0
2018-09-16T04:21:18.486Z,0
2018-09-16T04:22:28.099Z,0
2018-09-16T04:23:37.403Z,0
2018-09-16T04:24:47.545Z,0
2018-09-16T04:25:57.391Z,0
2018-09-16T04:27:06.694Z,0
2018-09-16T04:28:16.538Z,0
2018-09-16T04:29:26.381Z,0
2018-09-16T04:30:35.952Z,0
2018-09-16T04:31:46.058Z,0
2018-09-16T04:32:55.357Z,0
2018-09-16T04:34:05.468Z,0
2018-09-16T04:35:14.779Z,0
2018-09-16T04:36:24.638Z,0
2018-09-16T04:37:34.747Z,0
2018-09-16T04:38:44.049Z,0
2018-09-16T04:39:53.897Z,0
2018-09-16T04:41:03.743Z,0
2018-09-16T04:42:13.854Z,0
2018-09-16T04:43:23.996Z,0
2018-09-16T04:44:33.846Z,0
2018-09-16T04:45:43.960Z,0
2018-09-16T04:46:53.817Z,0
2018-09-16T04:48:03.173Z,0
2018-09-16T04:49:13.012Z,0
2018-09-16T04:50:23.129Z,0
2018-09-16T04:51:32.971Z,0
2018-09-16T04:52:42.536Z,0
2018-09-16T04:53:52.644Z,0
2018-09-16T04:55:02.213Z,0
2018-09-16T04:56:11.782Z,0
2018-09-16T04:57:21.618Z,5
2018-09-16T04:58:31.457Z,5
2018-09-16T04:59:41.616Z,5
2018-09-16T05:00:50.915Z,5
2018-09-16T05:02:00.798Z,5
2018-09-16T05:03:10.924Z,5
2018-09-16T05:04:20.773Z,5
2018-09-16T05:05:30.940Z,5
2018-09-16T05:06:41.065Z,5
2018-09-16T05:07:50.634Z,10
2018-09-16T05:09:00.199Z,10
2018-09-16T05:10:10.035Z,10
2018-09-16T05:11:19.870Z,10
2018-09-16T05:12:29.724Z,10
2018-09-16T05:13:39.291Z,15
2018-09-16T05:14:48.863Z,15
2018-09-16T05:15:57.621Z,15
2018-09-16T05:17:07.733Z,20
2018-09-16T05:18:17.026Z,20
2018-09-16T05:19:26.599Z,25
2018-09-16T05:20:36.468Z,30
2018-09-16T05:21:46.315Z,30
2018-09-16T05:22:55.884Z,35
2018-09-16T05:24:04.912Z,35
2018-09-16T05:25:14.754Z,40
2018-09-16T05:26:24.324Z,40
2018-09-16T05:27:33.628Z,45
2018-09-16T05:28:43.743Z,50
2018-09-16T05:29:53.109Z,50
2018-09-16T05:31:02.961Z,50
2018-09-16T05:32:12.534Z,55
2018-09-16T05:33:22.380Z,55
2018-09-16T05:34:32.228Z,55
2018-09-16T05:35:42.337Z,55
2018-09-16T05:36:52.196Z,60
2018-09-16T05:38:01.772Z,60
2018-09-16T05:39:11.661Z,65
2018-09-16T05:40:21.231Z,65
2018-09-16T05:41:30.533Z,65
2018-09-16T05:42:39.839Z,65
2018-09-16T05:43:49.983Z,70
2018-09-16T05:44:59.830Z,70
2018-09-16T05:46:09.677Z,70
2018-09-16T05:47:19.243Z,70
2018-09-16T05:48:28.809Z,75
2018-09-16T05:49:38.916Z,75
2018-09-16T05:50:48.763Z,75
2018-09-16T05:51:58.600Z,75
2018-09-16T05:53:08.715Z,80
2018-09-16T05:54:18.232Z,80
2018-09-16T05:55:27.806Z,80
2018-09-16T05:56:37.684Z,80
2018-09-16T05:57:47.517Z,90
2018-09-16T05:58:57.349Z,90
2018-09-16T06:00:07.197Z,90
2018-09-16T06:01:17.078Z,95
2018-09-16T06:02:26.954Z,95
2018-09-16T06:03:36.260Z,100
2018-09-16T06:04:46.131Z,100
2018-09-16T06:05:55.708Z,105
2018-09-16T06:07:05.279Z,105
2018-09-16T06:08:14.851Z,110
2018-09-16T06:09:24.692Z,110
2018-09-16T06:10:34.800Z,115
2018-09-16T06:11:44.643Z,115
2018-09-16T06:12:54.216Z,115
2018-09-16T06:14:03.517Z,120
2018-09-16T06:15:13.640Z,120
2018-09-16T06:16:23.498Z,120
2018-09-16T06:17:33.543Z,120
2018-09-16T06:18:43.380Z,120
2018-09-16T06:19:52.944Z,120
2018-09-16T06:21:03.067Z,120
2018-09-16T06:22:12.379Z,115
2018-09-16T06:23:22.010Z,115
2018-09-16T06:24:31.582Z,115
2018-09-16T06:25:41.461Z,120
2018-09-16T06:26:51.300Z,120
2018-09-16T06:28:00.871Z,120
2018-09-16T06:29:10.437Z,120
2018-09-16T06:30:19.740Z,125
2018-09-16T06:31:29.608Z,125
2018-09-16T06:32:39.724Z,130
2018-09-16T06:33:50.424Z,130
2018-09-16T06:34:59.721Z,135
2018-09-16T06:36:09.296Z,135
2018-09-16T06:37:19.132Z,140
2018-09-16T06:38:28.704Z,145
2018-09-16T06:39:38.282Z,145
2018-09-16T06:40:48.125Z,150
2018-09-16T06:41:57.725Z,160
2018-09-16T06:43:07.845Z,160
2018-09-16T06:44:17.683Z,160
2018-09-16T06:45:27.527Z,165
2018-09-16T06:46:37.651Z,165
2018-09-16T06:47:47.791Z,175
2018-09-16T06:48:57.632Z,175
2018-09-16T06:50:06.970Z,175
2018-09-16T06:51:16.540Z,175
2018-09-16T06:52:26.346Z,175
2018-09-16T06:53:35.645Z,180
2018-09-16T06:54:45.261Z,180
2018-09-16T06:55:55.093Z,180
2018-09-16T06:57:04.666Z,175
2018-09-16T06:58:14.510Z,175
2018-09-16T06:59:24.077Z,175
2018-09-16T07:00:33.923Z,170
2018-09-16T07:01:43.816Z,170
2018-09-16T07:02:53.390Z,170
2018-09-16T07:04:02.966Z,165
2018-09-16T07:05:12.577Z,165
2018-09-16T07:06:22.423Z,165
2018-09-16T07:07:32.264Z,170
2018-09-16T07:08:41.621Z,170
2018-09-16T07:09:51.194Z,175
2018-09-16T07:11:01.029Z,180
2018-09-16T07:12:11.135Z,180
2018-09-16T07:13:20.439Z,185
2018-09-16T07:14:31.066Z,185
2018-09-16T07:15:40.970Z,190
2018-09-16T07:16:50.818Z,195
2018-09-16T07:18:00.389Z,205
2018-09-16T07:19:09.769Z,210
2018-09-16T07:20:20.112Z,215
2018-09-16T07:21:29.699Z,225
2018-09-16T07:22:39.813Z,235
2018-09-16T07:23:49.650Z,240
2018-09-16T07:24:59.972Z,240
2018-09-16T07:26:09.545Z,235
2018-09-16T07:27:19.836Z,235
2018-09-16T07:28:30.039Z,230
2018-09-16T07:29:40.147Z,230
2018-09-16T07:30:49.450Z,230
2018-09-16T07:31:59.294Z,230
2018-09-16T07:33:08.869Z,230
2018-09-16T07:34:19.275Z,225
2018-09-16T07:35:29.410Z,220
2018-09-16T07:36:39.525Z,210
2018-09-16T07:37:48.287Z,200
2018-09-16T07:38:58.137Z,190
2018-09-16T07:40:07.711Z,185
2018-09-16T07:41:17.554Z,180
2018-09-16T07:42:27.659Z,170
2018-09-16T07:43:37.506Z,170
2018-09-16T07:44:47.350Z,165
2018-09-16T07:45:56.928Z,165
2018-09-16T07:47:06.769Z,165
2018-09-16T07:48:16.625Z,165
2018-09-16T07:49:26.473Z,170
2018-09-16T07:50:36.618Z,175
2018-09-16T07:51:45.917Z,180
2018-09-16T07:52:55.601Z,190
2018-09-16T07:54:05.480Z,195
2018-09-16T07:55:15.053Z,200
2018-09-16T07:56:24.620Z,210
2018-09-16T07:57:34.482Z,210
2018-09-16T07:58:44.329Z,215
2018-09-16T07:59:54.176Z,210
2018-09-16T08:01:03.485Z,210
2018-09-16T08:02:13.100Z,205
2018-09-16T08:03:22.957Z,200
2018-09-16T08:04:32.560Z,185
2018-09-16T08:05:42.827Z,180
2018-09-16T08:06:52.148Z,180
2018-09-16T08:08:02.284Z,175
2018-09-16T08:09:11.895Z,170
2018-09-16T08:10:21.749Z,160
2018-09-16T08:11:31.599Z,155
2018-09-16T08:12:41.174Z,170
2018-09-16T08:13:52.005Z,160
2018-09-16T08:15:02.159Z,170
2018-09-16T08:16:12.012Z,165
2018-09-16T08:17:21.852Z,165
2018-09-16T08:18:30.889Z,170
2018-09-16T08:19:40.738Z,185
2018-09-16T08:20:50.403Z,190
2018-09-16T08:21:59.716Z,190
2018-09-16T08:23:09.010Z,195
2018-09-16T08:24:18.582Z,195
2018-09-16T08:25:28.153Z,205
2018-09-16T08:26:37.969Z,205
2018-09-16T08:27:47.814Z,210
2018-09-16T08:28:57.391Z,215
2018-09-16T08:30:06.971Z,220
2018-09-16T08:31:16.284Z,220
2018-09-16T08:32:25.884Z,220
2018-09-16T08:33:35.488Z,220
2018-09-16T08:34:45.330Z,215
2018-09-16T08:35:55.438Z,210
2018-09-16T08:37:05.514Z,215
2018-09-16T08:38:15.885Z,220
2018-09-16T08:39:25.736Z,225
2018-09-16T08:40:35.582Z,220
2018-09-16T08:41:45.485Z,215
2018-09-16T08:42:55.325Z,205
2018-09-16T08:44:04.628Z,200
2018-09-16T08:45:14.480Z,205
2018-09-16T08:46:24.323Z,210
2018-09-16T08:47:34.436Z,205
2018-09-16T08:48:44.306Z,195
2018-09-16T08:49:54.159Z,200
2018-09-16T08:51:04.284Z,205
2018-09-16T08:52:14.048Z,210
2018-09-16T08:53:23.651Z,220
2018-09-16T08:54:34.152Z,215
2018-09-16T08:55:43.992Z,215
2018-09-16T08:56:54.102Z,205
2018-09-16T08:58:04.082Z,200
2018-09-16T08:59:14.229Z,210
2018-09-16T09:00:24.354Z,215
2018-09-16T09:01:33.929Z,230
2018-09-16T09:02:43.504Z,240
2018-09-16T09:03:52.815Z,235
2018-09-16T09:05:02.421Z,235
2018-09-16T09:06:11.988Z,230
2018-09-16T09:07:21.301Z,230
2018-09-16T09:08:31.149Z,225
2018-09-16T09:09:41.022Z,225
2018-09-16T09:10:50.063Z,215
2018-09-16T09:11:59.685Z,205
2018-09-16T09:13:09.312Z,200
2018-09-16T09:14:19.132Z,200
2018-09-16T09:15:29.344Z,205
2018-09-16T09:16:39.193Z,210
2018-09-16T09:17:48.769Z,205
2018-09-16T09:18:58.081Z,215
2018-09-16T09:20:07.929Z,215
2018-09-16T09:21:17.773Z,220
2018-09-16T09:22:27.358Z,225
2018-09-16T09:23:37.383Z,225
2018-09-16T09:24:47.227Z,225
2018-09-16T09:25:57.380Z,225
2018-09-16T09:27:06.957Z,220
2018-09-16T09:28:16.539Z,225
2018-09-16T09:29:26.384Z,225
2018-09-16T09:30:36.288Z,230
2018-09-16T09:31:45.323Z,230
2018-09-16T09:32:55.166Z,235
2018-09-16T09:34:05.283Z,240
2018-09-16T09:35:14.864Z,245
2018-09-16T09:36:24.434Z,245
2018-09-16T09:37:34.017Z,245
2018-09-16T09:38:43.866Z,250
2018-09-16T09:39:53.730Z,265
2018-09-16T09:41:03.306Z,265
2018-09-16T09:42:12.879Z,275
2018-09-16T09:43:22.455Z,285
2018-09-16T09:44:32.032Z,300
2018-09-16T09:45:41.887Z,315
2018-09-16T09:46:51.735Z,320
2018-09-16T09:48:01.851Z,325
2018-09-16T09:49:11.429Z,330
2018-09-16T09:50:21.269Z,330
2018-09-16T09:51:30.880Z,320
2018-09-16T09:52:40.461Z,310
2018-09-16T09:53:50.316Z,305
2018-09-16T09:55:00.158Z,295
2018-09-16T09:56:10.007Z,290
2018-09-16T09:57:19.608Z,290
2018-09-16T09:58:29.725Z,290
2018-09-16T09:59:39.161Z,305
2018-09-16T10:00:48.797Z,320
2018-09-16T10:01:58.101Z,330
2018-09-16T10:03:07.135Z,345
2018-09-16T10:04:16.705Z,325
2018-09-16T10:05:26.549Z,325
2018-09-16T10:06:35.580Z,335
2018-09-16T10:07:45.431Z,345
2018-09-16T10:08:55.012Z,360
2018-09-16T10:10:04.588Z,370
2018-09-16T10:11:14.158Z,375
2018-09-16T10:12:24.002Z,380
2018-09-16T10:13:33.575Z,380
2018-09-16T10:14:43.863Z,375
2018-09-16T10:15:53.706Z,385
2018-09-16T10:17:03.284Z,380
2018-09-16T10:18:13.322Z,380
2018-09-16T10:19:23.443Z,365
2018-09-16T10:20:33.572Z,355
2018-09-16T10:21:43.697Z,375
2018-09-16T10:22:53.394Z,385
2018-09-16T10:24:03.508Z,400
2018-09-16T10:25:12.882Z,385
2018-09-16T10:26:22.471Z,365
2018-09-16T10:27:31.899Z,365
2018-09-16T10:28:41.489Z,355
2018-09-16T10:29:51.332Z,345
2018-09-16T10:31:00.912Z,355
2018-09-16T10:32:11.047Z,370
2018-09-16T10:33:20.641Z,390
2018-09-16T10:34:30.289Z,385
2018-09-16T10:35:40.407Z,375
2018-09-16T10:36:50.254Z,375
2018-09-16T10:37:59.829Z,410
2018-09-16T10:39:09.231Z,415
2018-09-16T10:40:19.344Z,415
2018-09-16T10:41:29.198Z,420
2018-09-16T10:42:38.773Z,440
2018-09-16T10:43:48.635Z,450
2018-09-16T10:44:58.479Z,465
2018-09-16T10:46:07.825Z,470
2018-09-16T10:47:17.127Z,455
2018-09-16T10:48:28.029Z,460
2018-09-16T10:49:37.310Z,485
2018-09-16T10:50:46.885Z,495
2018-09-16T10:51:56.512Z,480
2018-09-16T10:53:06.368Z,475
2018-09-16T10:54:16.225Z,470
2018-09-16T10:55:25.269Z,435
2018-09-16T10:56:35.112Z,405
2018-09-16T10:57:45.274Z,390
2018-09-16T10:58:55.146Z,405
2018-09-16T11:00:04.452Z,440
2018-09-16T11:01:14.296Z,485
2018-09-16T11:02:23.609Z,490
2018-09-16T11:03:33.216Z,505
2018-09-16T11:04:42.823Z,520
2018-09-16T11:05:52.672Z,555
2018-09-16T11:07:02.557Z,565
2018-09-16T11:08:12.551Z,530
2018-09-16T11:09:22.670Z,490
2018-09-16T11:10:32.807Z,545
2018-09-16T11:11:42.677Z,575
2018-09-16T11:12:52.259Z,590
2018-09-16T11:14:01.840Z,600
2018-09-16T11:15:11.418Z,580
2018-09-16T11:16:21.265Z,595
2018-09-16T11:17:31.112Z,600
2018-09-16T11:18:40.759Z,585
2018-09-16T11:19:50.656Z,565
2018-09-16T11:21:00.241Z,540
2018-09-16T11:22:10.488Z,530
2018-09-16T11:23:20.358Z,515
2018-09-16T11:24:29.936Z,500
2018-09-16T11:25:39.533Z,490
2018-09-16T11:26:48.873Z,465
2018-09-16T11:27:58.990Z,480
2018-09-16T11:29:08.842Z,505
2018-09-16T11:30:18.713Z,490
2018-09-16T11:31:28.290Z,475
2018-09-16T11:32:38.418Z,480
2018-09-16T11:33:47.728Z,485
2018-09-16T11:34:57.311Z,500
2018-09-16T11:36:06.618Z,515
2018-09-16T11:37:15.931Z,530
2018-09-16T11:38:25.511Z,545
2018-09-16T11:39:35.356Z,545
2018-09-16T11:40:45.205Z,540
2018-09-16T11:41:55.047Z,515
2018-09-16T11:43:04.363Z,515
2018-09-16T11:44:14.496Z,530
2018-09-16T11:45:24.338Z,550
2018-09-16T11:46:33.645Z,545
2018-09-16T11:47:43.224Z,530
2018-09-16T11:48:53.077Z,530
2018-09-16T11:50:02.943Z,575
2018-09-16T11:51:13.069Z,595
2018-09-16T11:52:22.374Z,780
2018-09-16T11:53:32.249Z,425
2018-09-16T11:54:42.096Z,430
2018-09-16T11:55:51.400Z,410
2018-09-16T11:57:01.246Z,825
2018-09-16T11:58:10.826Z,745
2018-09-16T11:59:20.695Z,670
2018-09-16T12:00:30.001Z,435
2018-09-16T12:01:39.578Z,500
2018-09-16T12:02:49.424Z,765
2018-09-16T12:03:59.274Z,925
2018-09-16T12:05:09.149Z,725
2018-09-16T12:06:19.274Z,555
2018-09-16T12:07:28.861Z,415
2018-09-16T12:08:38.975Z,410
2018-09-16T12:09:48.555Z,465
2018-09-16T12:10:58.669Z,510
2018-09-16T12:12:08.828Z,500
2018-09-16T12:13:18.415Z,545
2018-09-16T12:14:27.729Z,500
2018-09-16T12:15:37.878Z,670
2018-09-16T12:16:47.460Z,440
2018-09-16T12:17:57.593Z,430
2018-09-16T12:19:07.170Z,460
2018-09-16T12:20:17.325Z,705
2018-09-16T12:21:26.361Z,535
2018-09-16T12:22:36.210Z,755
2018-09-16T12:23:45.249Z,645
2018-09-16T12:24:54.833Z,595
2018-09-16T12:26:04.681Z,625
2018-09-16T12:27:14.820Z,645
2018-09-16T12:28:24.662Z,670
2018-09-16T12:29:33.970Z,670
2018-09-16T12:30:44.107Z,670
2018-09-16T12:31:53.959Z,690
2018-09-16T12:33:03.534Z,735
2018-09-16T12:34:12.836Z,760
2018-09-16T12:35:22.686Z,770
2018-09-16T12:36:32.809Z,765
2018-09-16T12:37:42.676Z,775
2018-09-16T12:38:52.520Z,780
2018-09-16T12:40:02.367Z,790
2018-09-16T12:41:12.015Z,805
2018-09-16T12:42:21.340Z,810
2018-09-16T12:43:31.217Z,800
2018-09-16T12:44:41.060Z,820
2018-09-16T12:45:50.669Z,835
2018-09-16T12:47:00.517Z,820
2018-09-16T12:48:10.096Z,815
2018-09-16T12:49:19.676Z,810
2018-09-16T12:50:29.522Z,745
2018-09-16T12:51:39.105Z,720
2018-09-16T12:52:48.688Z,715
2018-09-16T12:53:59.042Z,660
2018-09-16T12:55:08.893Z,605
2018-09-16T12:56:18.467Z,625
2018-09-16T12:57:28.046Z,625
2018-09-16T12:58:37.356Z,670
2018-09-16T12:59:47.201Z,710
2018-09-16T13:00:56.815Z,490
2018-09-16T13:02:06.663Z,490
2018-09-16T13:03:16.540Z,545
2018-09-16T13:04:26.709Z,515
2018-09-16T13:05:36.915Z,495
2018-09-16T13:06:46.496Z,545
2018-09-16T13:07:56.093Z,535
2018-09-16T13:09:06.224Z,665
2018-09-16T13:10:16.075Z,505
2018-09-16T13:11:25.655Z,650
2018-09-16T13:12:35.537Z,525
2018-09-16T13:13:45.481Z,540
2018-09-16T13:14:55.401Z,530
2018-09-16T13:16:05.519Z,550
2018-09-16T13:17:15.094Z,565
2018-09-16T13:18:25.203Z,500
2018-09-16T13:19:34.828Z,495
2018-09-16T13:20:44.442Z,505
2018-09-16T13:21:53.220Z,520
2018-09-16T13:23:02.796Z,530
2018-09-16T13:24:12.369Z,530
2018-09-16T13:25:22.215Z,515
2018-09-16T13:26:31.798Z,495
2018-09-16T13:27:41.646Z,475
2018-09-16T13:28:52.161Z,475
2018-09-16T13:30:02.046Z,480
2018-09-16T13:31:11.622Z,500
2018-09-16T13:32:21.199Z,515
2018-09-16T13:33:31.318Z,520
2018-09-16T13:34:41.440Z,525
2018-09-16T13:35:51.032Z,530
2018-09-16T13:37:00.621Z,545
2018-09-16T13:38:10.586Z,560
2018-09-16T13:39:19.843Z,570
2018-09-16T13:40:29.155Z,595
2018-09-16T13:41:38.997Z,615
2018-09-16T13:42:49.185Z,630
2018-09-16T13:43:59.034Z,615
2018-09-16T13:45:08.646Z,605
2018-09-16T13:46:17.684Z,615
2018-09-16T13:47:27.543Z,620
2018-09-16T13:48:38.264Z,615
2018-09-16T13:49:48.119Z,615
2018-09-16T13:50:57.961Z,650
2018-09-16T13:52:07.319Z,705
2018-09-16T13:53:16.903Z,770
2018-09-16T13:54:26.757Z,845
2018-09-16T13:55:36.078Z,1005
2018-09-16T13:56:45.932Z,1005
2018-09-16T13:57:56.057Z,1000
2018-09-16T13:59:05.634Z,1080
2018-09-16T14:00:14.681Z,1580
2018-09-16T14:01:24.805Z,1865
2018-09-16T14:02:34.858Z,1865
2018-09-16T14:03:45.020Z,1260
2018-09-16T14:04:54.686Z,1165
2018-09-16T14:06:04.854Z,830
2018-09-16T14:07:14.714Z,730
2018-09-16T14:08:23.756Z,740
2018-09-16T14:09:33.551Z,725
2018-09-16T14:10:43.778Z,670
2018-09-16T14:11:53.638Z,580
2018-09-16T14:13:03.223Z,565
2018-09-16T14:14:13.125Z,525
2018-09-16T14:15:23.585Z,530
2018-09-16T14:16:33.503Z,1045
2018-09-16T14:17:43.077Z,775
2018-09-16T14:18:52.930Z,595
2018-09-16T14:20:02.253Z,580
2018-09-16T14:21:12.103Z,590
2018-09-16T14:22:22.573Z,585
2018-09-16T14:23:32.572Z,565
2018-09-16T14:24:42.151Z,545
2018-09-16T14:25:52.003Z,695
2018-09-16T14:27:01.581Z,730
2018-09-16T14:28:11.770Z,630
2018-09-16T14:29:21.597Z,610
2018-09-16T14:30:31.537Z,625
2018-09-16T14:31:41.442Z,625
2018-09-16T14:32:50.753Z,630
2018-09-16T14:34:00.875Z,830
2018-09-16T14:35:10.822Z,920
2018-09-16T14:36:20.650Z,690
2018-09-16T14:37:30.970Z,655
2018-09-16T14:38:40.879Z,615
2018-09-16T14:39:51.004Z,565
2018-09-16T14:41:00.858Z,515
2018-09-16T14:42:10.439Z,465
2018-09-16T14:43:20.057Z,445
2018-09-16T14:44:30.187Z,445
2018-09-16T14:45:40.035Z,445
2018-09-16T14:46:49.619Z,440
2018-09-16T14:47:59.159Z,430
2018-09-16T14:49:09.006Z,420
2018-09-16T14:50:18.851Z,420
2018-09-16T14:51:29.257Z,435
2018-09-16T14:52:39.444Z,445
2018-09-16T14:53:49.573Z,460
2018-09-16T14:54:58.878Z,480
2018-09-16T14:56:08.762Z,500
2018-09-16T14:57:18.663Z,520
2018-09-16T14:58:28.819Z,545
2018-09-16T14:59:38.944Z,590
2018-09-16T15:00:48.794Z,680
2018-09-16T15:01:58.104Z,735
2018-09-16T15:03:07.957Z,735
2018-09-16T15:04:17.803Z,700
2018-09-16T15:05:27.689Z,710
2018-09-16T15:06:37.000Z,640
2018-09-16T15:07:47.525Z,610
2018-09-16T15:08:57.110Z,635
2018-09-16T15:10:07.244Z,655
2018-09-16T15:11:17.321Z,570
2018-09-16T15:12:27.473Z,520
2018-09-16T15:13:37.530Z,490
2018-09-16T15:14:47.645Z,505
2018-09-16T15:15:57.499Z,495
2018-09-16T15:17:06.269Z,490
2018-09-16T15:18:15.851Z,605
2018-09-16T15:19:25.779Z,915
2018-09-16T15:20:35.120Z,585
2018-09-16T15:21:45.246Z,570
2018-09-16T15:22:55.425Z,600
2018-09-16T15:24:05.650Z,650
2018-09-16T15:25:15.496Z,595
2018-09-16T15:26:25.341Z,630
2018-09-16T15:27:35.205Z,815
2018-09-16T15:28:44.786Z,695
2018-09-16T15:29:54.907Z,775
2018-09-16T15:31:04.524Z,765
2018-09-16T15:32:14.385Z,710
2018-09-16T15:33:24.293Z,805
2018-09-16T15:34:33.605Z,905
2018-09-16T15:35:43.195Z,850
2018-09-16T15:36:53.055Z,770
2018-09-16T15:38:02.370Z,700
2018-09-16T15:39:11.959Z,455
2018-09-16T15:40:21.578Z,415
2018-09-16T15:41:31.703Z,385
2018-09-16T15:42:41.543Z,370
2018-09-16T15:43:51.139Z,360
2018-09-16T15:45:00.995Z,360
2018-09-16T15:46:10.303Z,355
2018-09-16T15:47:20.151Z,325
2018-09-16T15:48:29.946Z,315
2018-09-16T15:49:39.533Z,350
2018-09-16T15:50:49.660Z,365
2018-09-16T15:51:59.493Z,325
2018-09-16T15:53:09.079Z,300
2018-09-16T15:54:18.962Z,305
2018-09-16T15:55:29.012Z,315
2018-09-16T15:56:38.872Z,325
2018-09-16T15:57:48.455Z,325
2018-09-16T15:58:58.036Z,320
2018-09-16T16:00:07.080Z,320
2018-09-16T16:01:16.941Z,330
2018-09-16T16:02:26.560Z,335
2018-09-16T16:03:36.150Z,325
2018-09-16T16:04:45.736Z,335
2018-09-16T16:05:55.624Z,345
2018-09-16T16:07:04.669Z,350
2018-09-16T16:08:14.839Z,370
2018-09-16T16:09:24.964Z,455
2018-09-16T16:10:35.060Z,565
2018-09-16T16:11:44.975Z,735
2018-09-16T16:12:54.829Z,1170
2018-09-16T16:14:04.415Z,1560
2018-09-16T16:15:13.727Z,1645
2018-09-16T16:16:24.621Z,1620
2018-09-16T16:17:34.293Z,1420
2018-09-16T16:18:43.905Z,1225
2018-09-16T16:19:53.787Z,1270
2018-09-16T16:21:03.647Z,1310
2018-09-16T16:22:13.500Z,1350
2018-09-16T16:23:23.109Z,485